sensor_id;sensor_type;location;lat;lon;timestamp;P1;durP1;ratioP1;P2;durP2;ratioP2
75209;SDS011;63796;53.136;14.882;2023-05-16T00:01:37;5.20;;;3.70;;
75209;SDS011;63796;53.136;14.882;2023-05-16T00:04:05;6.00;;;3.40;;
75209;SDS011;63796;53.136;14.882;2023-05-16T00:06:33;8.60;;;3.30;;
75209;SDS011;63796;53.136;14.882;2023-05-16T00:09:02;4.20;;;3.70;;
75209;SDS011;63796;53.136;14.882;2023-05-16T00:11:29;7.10;;;3.60;;
75209;SDS011;63796;53.136;14.882;2023-05-16T00:13:56;4.20;;;3.40;;
75209;SDS011;63796;53.136;14.882;2023-05-16T00:16:24;5.20;;;3.60;;
75209;SDS011;63796;53.136;14.882;2023-05-16T00:18:52;6.90;;;4.30;;
75209;SDS011;63796;53.136;14.882;2023-05-16T00:21:19;8.00;;;3.90;;
75209;SDS011;63796;53.136;14.882;2023-05-16T00:23:49;4.30;;;3.60;;
75209;SDS011;63796;53.136;14.882;2023-05-16T00:26:18;5.60;;;4.20;;
75209;SDS011;63796;53.136;14.882;2023-05-16T00:28:46;4.80;;;3.80;;
75209;SDS011;63796;53.136;14.882;2023-05-16T00:31:14;4.40;;;3.80;;
75209;SDS011;63796;53.136;14.882;2023-05-16T00:33:41;5.10;;;4.00;;
75209;SDS011;63796;53.136;14.882;2023-05-16T00:36:08;4.90;;;3.70;;
75209;SDS011;63796;53.136;14.882;2023-05-16T00:38:36;7.90;;;4.00;;
75209;SDS011;63796;53.136;14.882;2023-05-16T00:41:03;6.40;;;4.00;;
75209;SDS011;63796;53.136;14.882;2023-05-16T00:43:31;5.70;;;3.90;;
75209;SDS011;63796;53.136;14.882;2023-05-16T00:45:58;5.70;;;4.30;;
75209;SDS011;63796;53.136;14.882;2023-05-16T00:48:27;5.30;;;4.00;;
75209;SDS011;63796;53.136;14.882;2023-05-16T00:50:54;4.90;;;4.40;;
75209;SDS011;63796;53.136;14.882;2023-05-16T00:53:23;4.90;;;3.90;;
75209;SDS011;63796;53.136;14.882;2023-05-16T00:55:51;4.20;;;3.70;;
75209;SDS011;63796;53.136;14.882;2023-05-16T00:58:20;5.90;;;3.50;;
75209;SDS011;63796;53.136;14.882;2023-05-16T01:00:48;6.30;;;3.60;;
75209;SDS011;63796;53.136;14.882;2023-05-16T01:03:17;7.20;;;3.80;;
75209;SDS011;63796;53.136;14.882;2023-05-16T01:05:44;6.20;;;3.50;;
75209;SDS011;63796;53.136;14.882;2023-05-16T01:08:13;5.60;;;4.20;;
75209;SDS011;63796;53.136;14.882;2023-05-16T01:16:38;4.60;;;3.60;;
75209;SDS011;63796;53.136;14.882;2023-05-16T01:22:07;6.60;;;3.90;;
75209;SDS011;63796;53.136;14.882;2023-05-16T01:27:22;7.80;;;4.10;;
75209;SDS011;63796;53.136;14.882;2023-05-16T01:29:55;4.70;;;4.00;;
75209;SDS011;63796;53.136;14.882;2023-05-16T01:32:22;6.70;;;4.30;;
75209;SDS011;63796;53.136;14.882;2023-05-16T01:34:50;6.40;;;4.20;;
75209;SDS011;63796;53.136;14.882;2023-05-16T01:37:23;6.80;;;3.60;;
75209;SDS011;63796;53.136;14.882;2023-05-16T01:39:56;6.00;;;3.60;;
75209;SDS011;63796;53.136;14.882;2023-05-16T01:42:26;8.80;;;4.10;;
75209;SDS011;63796;53.136;14.882;2023-05-16T01:47:25;4.70;;;3.50;;
75209;SDS011;63796;53.136;14.882;2023-05-16T01:52:31;4.40;;;3.40;;
75209;SDS011;63796;53.136;14.882;2023-05-16T01:55:01;5.50;;;4.10;;
75209;SDS011;63796;53.136;14.882;2023-05-16T01:57:29;7.30;;;3.90;;
75209;SDS011;63796;53.136;14.882;2023-05-16T01:59:57;4.80;;;3.70;;
75209;SDS011;63796;53.136;14.882;2023-05-16T02:02:25;4.50;;;3.70;;
75209;SDS011;63796;53.136;14.882;2023-05-16T02:04:53;3.90;;;3.60;;
75209;SDS011;63796;53.136;14.882;2023-05-16T02:07:20;6.10;;;3.80;;
75209;SDS011;63796;53.136;14.882;2023-05-16T02:09:47;6.80;;;3.90;;
75209;SDS011;63796;53.136;14.882;2023-05-16T02:12:16;4.30;;;3.80;;
75209;SDS011;63796;53.136;14.882;2023-05-16T02:14:43;4.30;;;3.90;;
75209;SDS011;63796;53.136;14.882;2023-05-16T02:17:10;4.20;;;3.80;;
75209;SDS011;63796;53.136;14.882;2023-05-16T02:19:38;5.40;;;4.30;;
75209;SDS011;63796;53.136;14.882;2023-05-16T02:22:05;4.80;;;4.00;;
75209;SDS011;63796;53.136;14.882;2023-05-16T02:24:33;6.30;;;3.90;;
75209;SDS011;63796;53.136;14.882;2023-05-16T02:27:01;4.00;;;3.30;;
75209;SDS011;63796;53.136;14.882;2023-05-16T02:29:28;6.40;;;3.60;;
75209;SDS011;63796;53.136;14.882;2023-05-16T02:31:56;6.10;;;4.00;;
75209;SDS011;63796;53.136;14.882;2023-05-16T02:34:23;8.10;;;3.70;;
75209;SDS011;63796;53.136;14.882;2023-05-16T02:36:50;5.70;;;4.50;;
75209;SDS011;63796;53.136;14.882;2023-05-16T02:39:18;5.60;;;4.00;;
75209;SDS011;63796;53.136;14.882;2023-05-16T02:41:45;10.30;;;4.10;;
75209;SDS011;63796;53.136;14.882;2023-05-16T02:44:12;5.30;;;4.00;;
75209;SDS011;63796;53.136;14.882;2023-05-16T02:46:40;5.60;;;3.90;;
75209;SDS011;63796;53.136;14.882;2023-05-16T02:49:07;5.10;;;4.30;;
75209;SDS011;63796;53.136;14.882;2023-05-16T02:51:34;4.20;;;3.80;;
75209;SDS011;63796;53.136;14.882;2023-05-16T02:54:02;6.00;;;3.70;;
75209;SDS011;63796;53.136;14.882;2023-05-16T02:56:29;6.70;;;4.30;;
75209;SDS011;63796;53.136;14.882;2023-05-16T02:58:56;6.90;;;4.50;;
75209;SDS011;63796;53.136;14.882;2023-05-16T03:01:24;5.80;;;4.20;;
75209;SDS011;63796;53.136;14.882;2023-05-16T03:03:51;6.90;;;4.50;;
75209;SDS011;63796;53.136;14.882;2023-05-16T03:06:19;4.90;;;3.90;;
75209;SDS011;63796;53.136;14.882;2023-05-16T03:08:46;4.70;;;4.00;;
75209;SDS011;63796;53.136;14.882;2023-05-16T03:11:16;6.60;;;4.30;;
75209;SDS011;63796;53.136;14.882;2023-05-16T03:13:46;5.40;;;4.10;;
75209;SDS011;63796;53.136;14.882;2023-05-16T03:16:14;6.50;;;4.20;;
75209;SDS011;63796;53.136;14.882;2023-05-16T03:18:42;6.80;;;4.30;;
75209;SDS011;63796;53.136;14.882;2023-05-16T03:21:09;10.40;;;4.80;;
75209;SDS011;63796;53.136;14.882;2023-05-16T03:23:37;5.90;;;4.40;;
75209;SDS011;63796;53.136;14.882;2023-05-16T03:26:04;6.00;;;4.60;;
75209;SDS011;63796;53.136;14.882;2023-05-16T03:28:32;6.10;;;4.60;;
75209;SDS011;63796;53.136;14.882;2023-05-16T03:31:00;7.90;;;4.80;;
75209;SDS011;63796;53.136;14.882;2023-05-16T03:33:27;8.00;;;4.40;;
75209;SDS011;63796;53.136;14.882;2023-05-16T03:35:54;8.40;;;4.60;;
75209;SDS011;63796;53.136;14.882;2023-05-16T03:38:21;6.30;;;4.80;;
75209;SDS011;63796;53.136;14.882;2023-05-16T03:40:49;8.30;;;4.70;;
75209;SDS011;63796;53.136;14.882;2023-05-16T03:43:17;6.50;;;4.60;;
75209;SDS011;63796;53.136;14.882;2023-05-16T03:45:44;9.00;;;4.50;;
75209;SDS011;63796;53.136;14.882;2023-05-16T03:48:12;6.40;;;4.60;;
75209;SDS011;63796;53.136;14.882;2023-05-16T03:50:39;7.60;;;4.60;;
75209;SDS011;63796;53.136;14.882;2023-05-16T03:53:08;5.30;;;4.20;;
75209;SDS011;63796;53.136;14.882;2023-05-16T03:55:36;6.70;;;4.80;;
75209;SDS011;63796;53.136;14.882;2023-05-16T03:58:03;8.70;;;5.20;;
75209;SDS011;63796;53.136;14.882;2023-05-16T04:00:31;7.20;;;5.30;;
75209;SDS011;63796;53.136;14.882;2023-05-16T04:02:58;6.60;;;5.40;;
75209;SDS011;63796;53.136;14.882;2023-05-16T04:05:25;6.50;;;5.50;;
75209;SDS011;63796;53.136;14.882;2023-05-16T04:07:53;7.70;;;5.70;;
75209;SDS011;63796;53.136;14.882;2023-05-16T04:10:21;7.00;;;6.20;;
75209;SDS011;63796;53.136;14.882;2023-05-16T04:12:48;9.30;;;6.30;;
75209;SDS011;63796;53.136;14.882;2023-05-16T04:15:16;7.40;;;5.70;;
75209;SDS011;63796;53.136;14.882;2023-05-16T04:17:43;7.00;;;5.80;;
75209;SDS011;63796;53.136;14.882;2023-05-16T04:20:10;8.10;;;6.00;;
75209;SDS011;63796;53.136;14.882;2023-05-16T04:22:38;7.40;;;6.20;;
75209;SDS011;63796;53.136;14.882;2023-05-16T04:25:06;7.60;;;5.80;;
75209;SDS011;63796;53.136;14.882;2023-05-16T04:27:33;7.50;;;5.80;;
75209;SDS011;63796;53.136;14.882;2023-05-16T04:30:01;9.60;;;5.70;;
75209;SDS011;63796;53.136;14.882;2023-05-16T04:32:28;6.10;;;5.50;;
75209;SDS011;63796;53.136;14.882;2023-05-16T04:34:56;9.30;;;5.50;;
75209;SDS011;63796;53.136;14.882;2023-05-16T04:37:23;7.40;;;5.80;;
75209;SDS011;63796;53.136;14.882;2023-05-16T04:39:50;6.50;;;5.80;;
75209;SDS011;63796;53.136;14.882;2023-05-16T04:42:19;7.40;;;6.20;;
75209;SDS011;63796;53.136;14.882;2023-05-16T04:44:46;6.80;;;5.90;;
75209;SDS011;63796;53.136;14.882;2023-05-16T04:47:14;8.70;;;6.70;;
75209;SDS011;63796;53.136;14.882;2023-05-16T04:49:41;8.50;;;6.70;;
75209;SDS011;63796;53.136;14.882;2023-05-16T04:52:09;10.30;;;6.70;;
75209;SDS011;63796;53.136;14.882;2023-05-16T04:54:37;7.20;;;6.50;;
75209;SDS011;63796;53.136;14.882;2023-05-16T04:57:05;8.80;;;7.00;;
75209;SDS011;63796;53.136;14.882;2023-05-16T04:59:32;7.80;;;7.00;;
75209;SDS011;63796;53.136;14.882;2023-05-16T05:02:00;8.60;;;7.10;;
75209;SDS011;63796;53.136;14.882;2023-05-16T05:04:27;9.00;;;8.10;;
75209;SDS011;63796;53.136;14.882;2023-05-16T05:06:55;10.20;;;8.60;;
75209;SDS011;63796;53.136;14.882;2023-05-16T05:09:22;16.40;;;9.40;;
75209;SDS011;63796;53.136;14.882;2023-05-16T05:11:49;11.40;;;9.90;;
75209;SDS011;63796;53.136;14.882;2023-05-16T05:14:17;12.30;;;9.80;;
75209;SDS011;63796;53.136;14.882;2023-05-16T05:16:44;13.60;;;10.10;;
75209;SDS011;63796;53.136;14.882;2023-05-16T05:19:11;15.70;;;11.20;;
75209;SDS011;63796;53.136;14.882;2023-05-16T05:21:38;15.10;;;11.50;;
75209;SDS011;63796;53.136;14.882;2023-05-16T05:24:06;15.50;;;11.60;;
75209;SDS011;63796;53.136;14.882;2023-05-16T05:26:33;15.20;;;13.00;;
75209;SDS011;63796;53.136;14.882;2023-05-16T05:29:00;19.30;;;13.40;;
75209;SDS011;63796;53.136;14.882;2023-05-16T05:31:32;21.00;;;14.10;;
75209;SDS011;63796;53.136;14.882;2023-05-16T05:34:02;21.40;;;15.60;;
75209;SDS011;63796;53.136;14.882;2023-05-16T05:36:29;26.90;;;18.40;;
75209;SDS011;63796;53.136;14.882;2023-05-16T05:38:57;25.70;;;18.60;;
75209;SDS011;63796;53.136;14.882;2023-05-16T05:41:24;35.10;;;20.20;;
75209;SDS011;63796;53.136;14.882;2023-05-16T05:43:52;31.70;;;20.90;;
75209;SDS011;63796;53.136;14.882;2023-05-16T05:46:20;26.70;;;19.00;;
75209;SDS011;63796;53.136;14.882;2023-05-16T05:48:47;27.70;;;19.60;;
75209;SDS011;63796;53.136;14.882;2023-05-16T05:51:15;25.80;;;19.00;;
75209;SDS011;63796;53.136;14.882;2023-05-16T05:53:43;29.10;;;19.60;;
75209;SDS011;63796;53.136;14.882;2023-05-16T05:56:11;28.80;;;18.80;;
75209;SDS011;63796;53.136;14.882;2023-05-16T05:58:38;26.30;;;18.10;;
75209;SDS011;63796;53.136;14.882;2023-05-16T06:01:10;25.60;;;18.00;;
75209;SDS011;63796;53.136;14.882;2023-05-16T06:03:37;23.60;;;16.80;;
75209;SDS011;63796;53.136;14.882;2023-05-16T06:06:05;27.70;;;17.90;;
75209;SDS011;63796;53.136;14.882;2023-05-16T06:08:33;27.10;;;16.60;;
75209;SDS011;63796;53.136;14.882;2023-05-16T06:11:01;23.10;;;16.10;;
75209;SDS011;63796;53.136;14.882;2023-05-16T06:13:28;21.60;;;15.50;;
75209;SDS011;63796;53.136;14.882;2023-05-16T06:15:56;21.50;;;15.10;;
75209;SDS011;63796;53.136;14.882;2023-05-16T06:18:23;25.60;;;16.20;;
75209;SDS011;63796;53.136;14.882;2023-05-16T06:20:51;26.00;;;16.40;;
75209;SDS011;63796;53.136;14.882;2023-05-16T06:23:19;24.20;;;17.50;;
75209;SDS011;63796;53.136;14.882;2023-05-16T06:25:47;25.70;;;16.90;;
75209;SDS011;63796;53.136;14.882;2023-05-16T06:28:14;22.40;;;17.20;;
75209;SDS011;63796;53.136;14.882;2023-05-16T06:30:41;23.90;;;17.30;;
75209;SDS011;63796;53.136;14.882;2023-05-16T06:33:09;25.20;;;17.20;;
75209;SDS011;63796;53.136;14.882;2023-05-16T06:35:38;19.70;;;15.30;;
75209;SDS011;63796;53.136;14.882;2023-05-16T06:38:05;21.30;;;14.70;;
75209;SDS011;63796;53.136;14.882;2023-05-16T06:40:33;19.50;;;14.50;;
75209;SDS011;63796;53.136;14.882;2023-05-16T06:43:00;20.00;;;13.70;;
75209;SDS011;63796;53.136;14.882;2023-05-16T06:45:27;22.80;;;14.80;;
75209;SDS011;63796;53.136;14.882;2023-05-16T06:47:55;20.90;;;13.60;;
75209;SDS011;63796;53.136;14.882;2023-05-16T06:50:23;19.30;;;13.70;;
75209;SDS011;63796;53.136;14.882;2023-05-16T06:52:51;19.90;;;13.50;;
75209;SDS011;63796;53.136;14.882;2023-05-16T06:55:19;15.90;;;12.90;;
75209;SDS011;63796;53.136;14.882;2023-05-16T06:57:46;15.50;;;11.40;;
75209;SDS011;63796;53.136;14.882;2023-05-16T07:00:14;17.90;;;11.60;;
75209;SDS011;63796;53.136;14.882;2023-05-16T07:02:42;15.30;;;11.80;;
75209;SDS011;63796;53.136;14.882;2023-05-16T07:05:09;17.80;;;13.50;;
75209;SDS011;63796;53.136;14.882;2023-05-16T07:07:36;19.90;;;13.60;;
75209;SDS011;63796;53.136;14.882;2023-05-16T07:10:05;17.90;;;13.30;;
75209;SDS011;63796;53.136;14.882;2023-05-16T07:12:35;18.40;;;13.30;;
75209;SDS011;63796;53.136;14.882;2023-05-16T07:15:04;20.40;;;13.60;;
75209;SDS011;63796;53.136;14.882;2023-05-16T07:17:31;19.00;;;12.60;;
75209;SDS011;63796;53.136;14.882;2023-05-16T07:19:59;16.20;;;12.60;;
75209;SDS011;63796;53.136;14.882;2023-05-16T07:22:31;15.80;;;12.20;;
75209;SDS011;63796;53.136;14.882;2023-05-16T07:24:58;18.10;;;12.80;;
75209;SDS011;63796;53.136;14.882;2023-05-16T07:27:27;17.30;;;12.00;;
75209;SDS011;63796;53.136;14.882;2023-05-16T07:29:54;18.70;;;11.60;;
75209;SDS011;63796;53.136;14.882;2023-05-16T07:32:22;14.10;;;10.80;;
75209;SDS011;63796;53.136;14.882;2023-05-16T07:34:49;16.70;;;12.90;;
75209;SDS011;63796;53.136;14.882;2023-05-16T07:37:17;20.90;;;13.60;;
75209;SDS011;63796;53.136;14.882;2023-05-16T07:39:44;17.00;;;12.10;;
75209;SDS011;63796;53.136;14.882;2023-05-16T07:42:17;16.40;;;12.30;;
75209;SDS011;63796;53.136;14.882;2023-05-16T07:44:45;14.70;;;10.90;;
75209;SDS011;63796;53.136;14.882;2023-05-16T07:47:13;12.30;;;9.80;;
75209;SDS011;63796;53.136;14.882;2023-05-16T07:49:40;13.30;;;9.80;;
75209;SDS011;63796;53.136;14.882;2023-05-16T07:52:07;15.20;;;9.00;;
75209;SDS011;63796;53.136;14.882;2023-05-16T07:54:36;12.50;;;8.80;;
75209;SDS011;63796;53.136;14.882;2023-05-16T07:57:04;13.50;;;9.30;;
75209;SDS011;63796;53.136;14.882;2023-05-16T07:59:32;16.40;;;11.40;;
75209;SDS011;63796;53.136;14.882;2023-05-16T08:02:00;14.30;;;9.50;;
75209;SDS011;63796;53.136;14.882;2023-05-16T08:04:27;13.70;;;9.30;;
75209;SDS011;63796;53.136;14.882;2023-05-16T08:06:54;14.00;;;9.10;;
75209;SDS011;63796;53.136;14.882;2023-05-16T08:09:22;10.80;;;8.40;;
75209;SDS011;63796;53.136;14.882;2023-05-16T08:11:49;12.40;;;8.90;;
75209;SDS011;63796;53.136;14.882;2023-05-16T08:14:16;11.70;;;8.40;;
75209;SDS011;63796;53.136;14.882;2023-05-16T08:16:44;10.00;;;8.40;;
75209;SDS011;63796;53.136;14.882;2023-05-16T08:19:12;13.60;;;10.20;;
75209;SDS011;63796;53.136;14.882;2023-05-16T08:21:39;14.60;;;9.80;;
75209;SDS011;63796;53.136;14.882;2023-05-16T08:24:07;14.80;;;8.60;;
75209;SDS011;63796;53.136;14.882;2023-05-16T08:26:34;10.90;;;8.40;;
75209;SDS011;63796;53.136;14.882;2023-05-16T08:29:03;15.10;;;9.20;;
75209;SDS011;63796;53.136;14.882;2023-05-16T08:31:31;15.40;;;10.30;;
75209;SDS011;63796;53.136;14.882;2023-05-16T08:33:59;15.60;;;10.10;;
75209;SDS011;63796;53.136;14.882;2023-05-16T08:36:27;13.10;;;9.30;;
75209;SDS011;63796;53.136;14.882;2023-05-16T08:38:55;15.80;;;10.20;;
75209;SDS011;63796;53.136;14.882;2023-05-16T08:41:22;13.80;;;10.20;;
75209;SDS011;63796;53.136;14.882;2023-05-16T08:43:50;12.30;;;8.90;;
75209;SDS011;63796;53.136;14.882;2023-05-16T08:46:21;12.30;;;8.40;;
75209;SDS011;63796;53.136;14.882;2023-05-16T08:48:53;11.60;;;8.70;;
75209;SDS011;63796;53.136;14.882;2023-05-16T08:51:23;14.40;;;10.00;;
75209;SDS011;63796;53.136;14.882;2023-05-16T08:54:12;13.30;;;9.30;;
75209;SDS011;63796;53.136;14.882;2023-05-16T08:56:43;12.70;;;10.10;;
75209;SDS011;63796;53.136;14.882;2023-05-16T08:59:11;12.60;;;8.30;;
75209;SDS011;63796;53.136;14.882;2023-05-16T09:01:38;13.30;;;9.40;;
75209;SDS011;63796;53.136;14.882;2023-05-16T09:04:08;14.30;;;10.50;;
75209;SDS011;63796;53.136;14.882;2023-05-16T09:06:37;14.30;;;9.60;;
75209;SDS011;63796;53.136;14.882;2023-05-16T09:09:04;11.40;;;8.20;;
75209;SDS011;63796;53.136;14.882;2023-05-16T09:11:34;14.00;;;7.90;;
75209;SDS011;63796;53.136;14.882;2023-05-16T09:14:03;10.40;;;7.50;;
75209;SDS011;63796;53.136;14.882;2023-05-16T09:16:31;14.30;;;8.40;;
75209;SDS011;63796;53.136;14.882;2023-05-16T09:19:00;13.20;;;8.50;;
75209;SDS011;63796;53.136;14.882;2023-05-16T09:21:30;12.70;;;9.50;;
75209;SDS011;63796;53.136;14.882;2023-05-16T09:24:04;11.00;;;8.20;;
75209;SDS011;63796;53.136;14.882;2023-05-16T09:26:33;10.10;;;7.10;;
75209;SDS011;63796;53.136;14.882;2023-05-16T09:29:01;11.00;;;7.50;;
75209;SDS011;63796;53.136;14.882;2023-05-16T09:31:28;13.90;;;9.60;;
75209;SDS011;63796;53.136;14.882;2023-05-16T09:34:07;16.00;;;9.90;;
75209;SDS011;63796;53.136;14.882;2023-05-16T09:36:35;16.20;;;9.10;;
75209;SDS011;63796;53.136;14.882;2023-05-16T09:39:04;10.10;;;7.10;;
75209;SDS011;63796;53.136;14.882;2023-05-16T09:41:35;12.20;;;7.50;;
75209;SDS011;63796;53.136;14.882;2023-05-16T09:44:03;14.70;;;10.10;;
75209;SDS011;63796;53.136;14.882;2023-05-16T09:46:33;16.80;;;11.70;;
75209;SDS011;63796;53.136;14.882;2023-05-16T09:49:01;22.10;;;13.40;;
75209;SDS011;63796;53.136;14.882;2023-05-16T09:51:28;19.20;;;13.50;;
75209;SDS011;63796;53.136;14.882;2023-05-16T09:53:57;19.00;;;13.30;;
75209;SDS011;63796;53.136;14.882;2023-05-16T09:56:24;18.20;;;11.30;;
75209;SDS011;63796;53.136;14.882;2023-05-16T09:58:52;16.60;;;10.90;;
75209;SDS011;63796;53.136;14.882;2023-05-16T10:01:19;15.50;;;9.90;;
75209;SDS011;63796;53.136;14.882;2023-05-16T10:03:47;12.80;;;9.10;;
75209;SDS011;63796;53.136;14.882;2023-05-16T10:06:14;12.70;;;8.40;;
75209;SDS011;63796;53.136;14.882;2023-05-16T10:08:43;11.90;;;8.20;;
75209;SDS011;63796;53.136;14.882;2023-05-16T10:11:12;17.40;;;10.00;;
75209;SDS011;63796;53.136;14.882;2023-05-16T10:13:40;12.80;;;8.00;;
75209;SDS011;63796;53.136;14.882;2023-05-16T10:16:11;13.20;;;8.30;;
75209;SDS011;63796;53.136;14.882;2023-05-16T10:18:39;16.00;;;8.80;;
75209;SDS011;63796;53.136;14.882;2023-05-16T10:21:12;9.40;;;6.70;;
75209;SDS011;63796;53.136;14.882;2023-05-16T10:23:41;11.30;;;7.50;;
75209;SDS011;63796;53.136;14.882;2023-05-16T10:26:13;11.50;;;7.10;;
75209;SDS011;63796;53.136;14.882;2023-05-16T10:28:42;10.90;;;6.80;;
75209;SDS011;63796;53.136;14.882;2023-05-16T10:31:10;11.40;;;6.70;;
75209;SDS011;63796;53.136;14.882;2023-05-16T10:33:38;18.70;;;6.70;;
75209;SDS011;63796;53.136;14.882;2023-05-16T10:36:07;11.10;;;7.00;;
75209;SDS011;63796;53.136;14.882;2023-05-16T10:38:36;12.70;;;8.20;;
75209;SDS011;63796;53.136;14.882;2023-05-16T10:41:05;11.20;;;7.80;;
75209;SDS011;63796;53.136;14.882;2023-05-16T10:43:33;15.50;;;10.20;;
75209;SDS011;63796;53.136;14.882;2023-05-16T10:46:07;12.40;;;8.70;;
75209;SDS011;63796;53.136;14.882;2023-05-16T10:48:39;16.10;;;10.10;;
75209;SDS011;63796;53.136;14.882;2023-05-16T10:53:53;15.80;;;8.70;;
75209;SDS011;63796;53.136;14.882;2023-05-16T10:56:25;9.50;;;5.80;;
75209;SDS011;63796;53.136;14.882;2023-05-16T10:58:53;9.30;;;5.90;;
75209;SDS011;63796;53.136;14.882;2023-05-16T11:01:24;10.00;;;5.60;;
75209;SDS011;63796;53.136;14.882;2023-05-16T11:06:34;10.70;;;7.40;;
75209;SDS011;63796;53.136;14.882;2023-05-16T11:14:07;9.50;;;5.00;;
75209;SDS011;63796;53.136;14.882;2023-05-16T11:16:38;8.20;;;4.40;;
75209;SDS011;63796;53.136;14.882;2023-05-16T11:19:06;8.60;;;4.80;;
75209;SDS011;63796;53.136;14.882;2023-05-16T11:24:35;6.70;;;3.00;;
75209;SDS011;63796;53.136;14.882;2023-05-16T11:27:04;9.40;;;3.40;;
75209;SDS011;63796;53.136;14.882;2023-05-16T11:29:35;5.40;;;2.90;;
75209;SDS011;63796;53.136;14.882;2023-05-16T11:32:04;8.60;;;3.50;;
75209;SDS011;63796;53.136;14.882;2023-05-16T11:34:35;8.90;;;3.60;;
75209;SDS011;63796;53.136;14.882;2023-05-16T11:37:03;10.80;;;3.10;;
75209;SDS011;63796;53.136;14.882;2023-05-16T11:39:31;6.40;;;2.80;;
75209;SDS011;63796;53.136;14.882;2023-05-16T11:41:58;6.70;;;3.50;;
75209;SDS011;63796;53.136;14.882;2023-05-16T11:44:26;6.40;;;2.40;;
75209;SDS011;63796;53.136;14.882;2023-05-16T11:46:53;5.10;;;2.00;;
75209;SDS011;63796;53.136;14.882;2023-05-16T11:49:20;5.00;;;1.90;;
75209;SDS011;63796;53.136;14.882;2023-05-16T11:51:48;7.50;;;2.30;;
75209;SDS011;63796;53.136;14.882;2023-05-16T11:54:18;5.80;;;2.60;;
75209;SDS011;63796;53.136;14.882;2023-05-16T11:56:45;5.40;;;1.90;;
75209;SDS011;63796;53.136;14.882;2023-05-16T11:59:13;3.30;;;1.50;;
75209;SDS011;63796;53.136;14.882;2023-05-16T12:01:41;5.00;;;1.90;;
75209;SDS011;63796;53.136;14.882;2023-05-16T12:04:12;7.20;;;2.10;;
75209;SDS011;63796;53.136;14.882;2023-05-16T12:06:41;4.00;;;1.90;;
75209;SDS011;63796;53.136;14.882;2023-05-16T12:09:13;7.30;;;2.30;;
75209;SDS011;63796;53.136;14.882;2023-05-16T12:11:44;7.00;;;1.90;;
75209;SDS011;63796;53.136;14.882;2023-05-16T12:14:12;5.40;;;2.00;;
75209;SDS011;63796;53.136;14.882;2023-05-16T12:16:40;8.20;;;2.20;;
75209;SDS011;63796;53.136;14.882;2023-05-16T12:19:10;12.40;;;3.60;;
75209;SDS011;63796;53.136;14.882;2023-05-16T12:21:38;5.00;;;2.00;;
75209;SDS011;63796;53.136;14.882;2023-05-16T12:24:09;6.60;;;2.10;;
75209;SDS011;63796;53.136;14.882;2023-05-16T12:26:39;6.70;;;2.40;;
75209;SDS011;63796;53.136;14.882;2023-05-16T12:29:08;9.70;;;3.40;;
75209;SDS011;63796;53.136;14.882;2023-05-16T12:31:39;13.60;;;6.00;;
75209;SDS011;63796;53.136;14.882;2023-05-16T12:34:15;7.60;;;2.90;;
75209;SDS011;63796;53.136;14.882;2023-05-16T12:36:43;11.90;;;3.10;;
75209;SDS011;63796;53.136;14.882;2023-05-16T12:39:11;5.20;;;2.30;;
75209;SDS011;63796;53.136;14.882;2023-05-16T12:41:41;8.70;;;3.80;;
75209;SDS011;63796;53.136;14.882;2023-05-16T12:44:14;10.40;;;4.10;;
75209;SDS011;63796;53.136;14.882;2023-05-16T12:46:49;10.10;;;2.80;;
75209;SDS011;63796;53.136;14.882;2023-05-16T12:49:21;13.00;;;5.10;;
75209;SDS011;63796;53.136;14.882;2023-05-16T12:51:53;11.70;;;7.10;;
75209;SDS011;63796;53.136;14.882;2023-05-16T12:54:21;9.30;;;3.50;;
75209;SDS011;63796;53.136;14.882;2023-05-16T12:56:49;9.10;;;2.80;;
75209;SDS011;63796;53.136;14.882;2023-05-16T12:59:16;17.30;;;7.60;;
75209;SDS011;63796;53.136;14.882;2023-05-16T13:01:45;8.50;;;3.60;;
75209;SDS011;63796;53.136;14.882;2023-05-16T13:04:12;10.20;;;4.20;;
75209;SDS011;63796;53.136;14.882;2023-05-16T13:06:44;7.50;;;2.80;;
75209;SDS011;63796;53.136;14.882;2023-05-16T13:09:25;6.30;;;2.80;;
75209;SDS011;63796;53.136;14.882;2023-05-16T13:11:58;6.60;;;3.20;;
75209;SDS011;63796;53.136;14.882;2023-05-16T13:14:25;9.70;;;3.40;;
75209;SDS011;63796;53.136;14.882;2023-05-16T13:16:53;10.00;;;4.20;;
75209;SDS011;63796;53.136;14.882;2023-05-16T13:19:20;10.00;;;5.10;;
75209;SDS011;63796;53.136;14.882;2023-05-16T13:21:49;8.70;;;3.70;;
75209;SDS011;63796;53.136;14.882;2023-05-16T13:24:16;8.90;;;3.10;;
75209;SDS011;63796;53.136;14.882;2023-05-16T13:26:43;8.30;;;2.70;;
75209;SDS011;63796;53.136;14.882;2023-05-16T13:29:11;6.50;;;2.20;;
75209;SDS011;63796;53.136;14.882;2023-05-16T13:31:39;9.20;;;2.90;;
75209;SDS011;63796;53.136;14.882;2023-05-16T13:34:06;6.90;;;2.80;;
75209;SDS011;63796;53.136;14.882;2023-05-16T13:36:34;7.70;;;3.10;;
75209;SDS011;63796;53.136;14.882;2023-05-16T13:39:19;9.70;;;3.60;;
75209;SDS011;63796;53.136;14.882;2023-05-16T13:41:46;6.30;;;2.30;;
75209;SDS011;63796;53.136;14.882;2023-05-16T13:44:15;10.00;;;2.00;;
75209;SDS011;63796;53.136;14.882;2023-05-16T13:46:43;6.60;;;2.00;;
75209;SDS011;63796;53.136;14.882;2023-05-16T13:49:10;12.60;;;3.20;;
75209;SDS011;63796;53.136;14.882;2023-05-16T13:51:38;6.20;;;1.50;;
75209;SDS011;63796;53.136;14.882;2023-05-16T13:54:05;9.50;;;1.80;;
75209;SDS011;63796;53.136;14.882;2023-05-16T13:56:32;11.00;;;1.80;;
75209;SDS011;63796;53.136;14.882;2023-05-16T13:59:00;7.70;;;1.20;;
75209;SDS011;63796;53.136;14.882;2023-05-16T14:01:33;8.00;;;1.80;;
75209;SDS011;63796;53.136;14.882;2023-05-16T14:04:01;6.90;;;1.50;;
75209;SDS011;63796;53.136;14.882;2023-05-16T14:06:28;8.90;;;1.40;;
75209;SDS011;63796;53.136;14.882;2023-05-16T14:08:55;7.60;;;1.60;;
75209;SDS011;63796;53.136;14.882;2023-05-16T14:11:23;9.70;;;1.50;;
75209;SDS011;63796;53.136;14.882;2023-05-16T14:13:56;5.10;;;1.20;;
75209;SDS011;63796;53.136;14.882;2023-05-16T14:16:24;5.40;;;1.00;;
75209;SDS011;63796;53.136;14.882;2023-05-16T14:18:52;9.70;;;2.20;;
75209;SDS011;63796;53.136;14.882;2023-05-16T14:21:19;14.80;;;5.80;;
75209;SDS011;63796;53.136;14.882;2023-05-16T14:23:46;8.30;;;1.50;;
75209;SDS011;63796;53.136;14.882;2023-05-16T14:26:14;4.50;;;1.00;;
75209;SDS011;63796;53.136;14.882;2023-05-16T14:28:42;6.00;;;1.30;;
75209;SDS011;63796;53.136;14.882;2023-05-16T14:31:10;12.10;;;1.60;;
75209;SDS011;63796;53.136;14.882;2023-05-16T14:33:38;7.50;;;1.00;;
75209;SDS011;63796;53.136;14.882;2023-05-16T14:36:07;7.50;;;1.50;;
75209;SDS011;63796;53.136;14.882;2023-05-16T14:38:34;6.60;;;1.10;;
75209;SDS011;63796;53.136;14.882;2023-05-16T14:41:02;7.80;;;1.60;;
75209;SDS011;63796;53.136;14.882;2023-05-16T14:43:29;8.90;;;1.70;;
75209;SDS011;63796;53.136;14.882;2023-05-16T14:45:57;11.40;;;1.40;;
75209;SDS011;63796;53.136;14.882;2023-05-16T14:48:24;6.30;;;2.00;;
75209;SDS011;63796;53.136;14.882;2023-05-16T14:50:52;11.20;;;1.90;;
75209;SDS011;63796;53.136;14.882;2023-05-16T14:53:19;7.80;;;2.20;;
75209;SDS011;63796;53.136;14.882;2023-05-16T14:55:47;6.10;;;1.70;;
75209;SDS011;63796;53.136;14.882;2023-05-16T14:58:15;7.40;;;2.40;;
75209;SDS011;63796;53.136;14.882;2023-05-16T15:00:43;7.50;;;2.50;;
75209;SDS011;63796;53.136;14.882;2023-05-16T15:03:10;7.70;;;2.10;;